createdAt,value
2022-11-20T00:01:20.541Z,1.68
2022-11-20T00:03:47.534Z,1.69
2022-11-20T00:06:16.416Z,1.67
2022-11-20T00:08:43.088Z,1.65
2022-11-20T00:11:16.334Z,1.63
2022-11-20T00:13:46.989Z,1.61
2022-11-20T00:16:15.768Z,1.60
2022-11-20T00:18:43.426Z,1.58
2022-11-20T00:21:15.744Z,1.59
2022-11-20T00:23:43.289Z,1.60
2022-11-20T00:26:15.555Z,1.57
2022-11-20T00:28:43.673Z,1.51
2022-11-20T00:31:11.878Z,1.45
2022-11-20T00:33:38.740Z,1.40
2022-11-20T00:36:10.382Z,1.41
2022-11-20T00:38:37.105Z,1.42
2022-11-20T00:41:06.685Z,1.42
2022-11-20T00:43:33.595Z,1.43
2022-11-20T00:46:06.995Z,1.47
2022-11-20T00:48:33.781Z,1.44
2022-11-20T00:51:00.672Z,1.45
2022-11-20T00:53:27.453Z,1.48
2022-11-20T00:56:05.370Z,1.44
2022-11-20T00:58:37.556Z,1.46
2022-11-20T01:01:21.994Z,1.48
2022-11-20T01:03:50.618Z,1.49
2022-11-20T01:06:26.241Z,1.51
2022-11-20T01:08:56.239Z,1.40
2022-11-20T01:11:28.307Z,1.43
2022-11-20T01:13:56.436Z,1.42
2022-11-20T01:16:28.628Z,1.42
2022-11-20T01:18:58.556Z,1.39
2022-11-20T01:21:36.223Z,1.39
2022-11-20T01:24:03.525Z,1.36
2022-11-20T01:26:32.542Z,1.37
2022-11-20T01:29:00.399Z,1.38
2022-11-20T01:31:31.860Z,1.42
2022-11-20T01:34:02.246Z,1.42
2022-11-20T01:36:30.800Z,1.33
2022-11-20T01:39:00.427Z,1.36
2022-11-20T01:41:49.054Z,1.37
2022-11-20T01:44:18.682Z,1.32
2022-11-20T01:47:03.709Z,1.32
2022-11-20T01:49:42.100Z,1.33
2022-11-20T01:52:21.597Z,1.40
2022-11-20T01:55:10.114Z,1.47
2022-11-20T01:57:38.809Z,1.51
2022-11-20T02:00:11.720Z,1.56
2022-11-20T02:02:40.140Z,1.59
2022-11-20T02:05:24.290Z,1.63
2022-11-20T02:07:51.703Z,1.67
2022-11-20T02:10:18.216Z,1.69
2022-11-20T02:13:04.566Z,1.71
2022-11-20T02:15:32.941Z,1.77
2022-11-20T02:17:59.597Z,1.78
2022-11-20T02:20:26.397Z,1.76
2022-11-20T02:23:11.790Z,1.74
2022-11-20T02:25:39.429Z,1.75
2022-11-20T02:28:06.679Z,1.78
2022-11-20T02:30:33.130Z,1.79
2022-11-20T02:32:59.607Z,1.84
2022-11-20T02:35:26.041Z,1.89
2022-11-20T02:37:55.794Z,1.90
2022-11-20T02:40:23.046Z,1.92
2022-11-20T02:42:55.939Z,1.91
2022-11-20T02:45:23.746Z,1.93
2022-11-20T02:47:50.645Z,1.91
2022-11-20T02:50:17.246Z,1.90
2022-11-20T02:52:44.105Z,1.91
2022-11-20T02:55:11.444Z,1.94
2022-11-20T02:57:38.039Z,1.95
2022-11-20T03:00:05.576Z,1.89
2022-11-20T03:02:33.043Z,1.82
2022-11-20T03:04:59.999Z,1.86
2022-11-20T03:07:26.526Z,1.87
2022-11-20T03:09:53.016Z,1.92
2022-11-20T03:12:19.472Z,1.96
2022-11-20T03:14:50.186Z,1.93
2022-11-20T03:17:19.323Z,1.96
2022-11-20T03:19:45.833Z,1.99
2022-11-20T03:22:12.309Z,1.97
2022-11-20T03:24:38.855Z,1.99
2022-11-20T03:27:05.344Z,2.00
2022-11-20T03:29:31.787Z,1.93
2022-11-20T03:31:58.320Z,1.97
2022-11-20T03:34:24.988Z,1.99
2022-11-20T03:36:51.401Z,2.01
2022-11-20T03:39:17.986Z,2.02
2022-11-20T03:41:44.506Z,2.05
2022-11-20T03:44:12.002Z,2.08
2022-11-20T03:46:39.132Z,2.11
2022-11-20T03:49:06.052Z,2.12
2022-11-20T03:51:35.670Z,2.13
2022-11-20T03:54:05.705Z,2.17
2022-11-20T03:56:34.705Z,2.21
2022-11-20T03:59:01.297Z,2.24
2022-11-20T04:01:33.127Z,2.25
2022-11-20T04:04:00.239Z,2.22
2022-11-20T04:06:34.242Z,2.17
2022-11-20T04:09:01.148Z,2.15
2022-11-20T04:11:32.852Z,2.15
2022-11-20T04:14:01.802Z,2.14
2022-11-20T04:16:30.912Z,2.14
2022-11-20T04:18:59.593Z,2.15
2022-11-20T04:21:27.294Z,2.09
2022-11-20T04:23:54.642Z,2.07
2022-11-20T04:26:23.145Z,2.08
2022-11-20T04:28:49.641Z,2.10
2022-11-20T04:31:18.828Z,2.14
2022-11-20T04:33:45.646Z,2.19
2022-11-20T04:36:23.304Z,2.22
2022-11-20T04:38:57.135Z,2.23
2022-11-20T04:41:26.892Z,2.24
2022-11-20T04:44:00.324Z,2.25
2022-11-20T04:46:28.776Z,2.25
2022-11-20T04:48:55.573Z,2.28
2022-11-20T04:51:22.499Z,2.33
2022-11-20T04:53:49.191Z,2.34
2022-11-20T04:56:16.201Z,2.39
2022-11-20T04:58:43.057Z,2.40
2022-11-20T05:01:16.053Z,2.38
2022-11-20T05:03:44.015Z,2.33
2022-11-20T05:06:13.278Z,2.31
2022-11-20T05:08:40.233Z,2.26
2022-11-20T05:11:09.376Z,2.25
2022-11-20T05:13:36.373Z,2.27
2022-11-20T05:16:05.180Z,2.31
2022-11-20T05:18:32.842Z,2.35
2022-11-20T05:20:59.539Z,2.33
2022-11-20T05:23:26.378Z,2.37
2022-11-20T05:25:58.909Z,2.41
2022-11-20T05:28:27.030Z,2.40
2022-11-20T05:30:53.542Z,2.40
2022-11-20T05:33:20.283Z,2.42
2022-11-20T05:35:46.825Z,2.42
2022-11-20T05:38:13.305Z,2.44
2022-11-20T05:40:40.164Z,2.47
2022-11-20T05:43:06.746Z,2.45
2022-11-20T05:45:33.173Z,2.44
2022-11-20T05:48:01.281Z,2.46
2022-11-20T05:50:31.244Z,2.44
2022-11-20T05:53:00.979Z,2.42
2022-11-20T05:55:28.158Z,2.42
2022-11-20T05:57:56.078Z,2.40
2022-11-20T06:00:23.116Z,2.40
2022-11-20T06:02:50.006Z,2.45
2022-11-20T06:05:16.630Z,2.45
2022-11-20T06:07:43.119Z,2.47
2022-11-20T06:10:10.045Z,2.43
2022-11-20T06:12:36.484Z,2.45
2022-11-20T06:15:03.226Z,2.47
2022-11-20T06:17:30.059Z,2.49
2022-11-20T06:19:56.546Z,2.49
2022-11-20T06:22:23.058Z,2.53
2022-11-20T06:24:49.770Z,2.50
2022-11-20T06:27:16.922Z,2.49
2022-11-20T06:29:43.657Z,2.50
2022-11-20T06:32:10.316Z,2.52
2022-11-20T06:34:36.744Z,2.54
2022-11-20T06:37:03.185Z,2.56
2022-11-20T06:39:29.695Z,2.58
2022-11-20T06:41:59.085Z,2.61
2022-11-20T06:44:26.177Z,2.59
2022-11-20T06:46:52.945Z,2.58
2022-11-20T06:49:19.705Z,2.57
2022-11-20T06:51:47.188Z,2.57
2022-11-20T06:54:13.622Z,2.58
2022-11-20T06:56:40.140Z,2.62
2022-11-20T06:59:08.208Z,2.62
2022-11-20T07:01:34.726Z,2.62
2022-11-20T07:04:01.186Z,2.65
2022-11-20T07:06:27.662Z,2.67
2022-11-20T07:08:54.091Z,2.69
2022-11-20T07:11:20.634Z,2.70
2022-11-20T07:13:47.081Z,2.69
2022-11-20T07:16:13.573Z,2.67
2022-11-20T07:18:40.101Z,2.66
2022-11-20T07:21:09.437Z,2.65
2022-11-20T07:23:36.468Z,2.67
2022-11-20T07:26:07.690Z,2.70
2022-11-20T07:28:34.977Z,2.70
2022-11-20T07:31:01.879Z,2.71
2022-11-20T07:33:28.407Z,2.74
2022-11-20T07:35:55.274Z,2.77
2022-11-20T07:38:21.906Z,2.78
2022-11-20T07:40:48.384Z,2.80
2022-11-20T07:43:14.855Z,2.82
2022-11-20T07:45:41.343Z,2.84
2022-11-20T07:48:07.938Z,2.87
2022-11-20T07:50:34.438Z,2.94
2022-11-20T07:53:05.706Z,2.94
2022-11-20T07:55:33.126Z,2.94
2022-11-20T07:58:00.150Z,2.96
2022-11-20T08:00:27.664Z,2.99
2022-11-20T08:02:54.663Z,2.99
2022-11-20T08:05:21.945Z,3.03
2022-11-20T08:07:48.844Z,3.06
2022-11-20T08:10:17.222Z,3.08
2022-11-20T08:13:14.916Z,3.17
2022-11-20T08:15:41.626Z,3.23
2022-11-20T08:21:02.653Z,3.39
2022-11-20T08:23:29.133Z,3.39
2022-11-20T08:25:55.607Z,3.42
2022-11-20T08:28:22.533Z,3.50
2022-11-20T08:30:51.518Z,3.60
2022-11-20T08:33:18.989Z,3.69
2022-11-20T08:35:45.588Z,3.77
2022-11-20T08:38:12.230Z,3.83
2022-11-20T08:40:38.708Z,3.88
2022-11-20T08:43:05.420Z,3.97
2022-11-20T08:45:34.746Z,3.97
2022-11-20T08:48:03.584Z,3.92
2022-11-20T08:50:33.287Z,3.89
2022-11-20T08:53:06.759Z,3.95
2022-11-20T08:55:33.708Z,3.96
2022-11-20T08:58:04.599Z,3.95
2022-11-20T09:00:31.053Z,3.99
2022-11-20T09:02:58.449Z,4.04
2022-11-20T09:05:25.146Z,4.07
2022-11-20T09:07:51.642Z,4.07
2022-11-20T09:10:25.536Z,4.07
2022-11-20T09:12:53.203Z,4.08
2022-11-20T09:15:20.327Z,4.07
2022-11-20T09:18:05.960Z,4.14
2022-11-20T09:20:32.840Z,4.19
2022-11-20T09:22:59.365Z,4.22
2022-11-20T09:25:25.866Z,4.18
2022-11-20T09:27:59.760Z,4.13
2022-11-20T09:30:28.471Z,4.05
2022-11-20T09:32:55.130Z,4.00
2022-11-20T09:35:21.633Z,3.93
2022-11-20T09:37:48.129Z,3.90
2022-11-20T09:40:21.761Z,3.85
2022-11-20T09:42:51.199Z,3.79
2022-11-20T09:45:44.010Z,3.76
2022-11-20T09:48:31.243Z,3.75
2022-11-20T09:51:45.808Z,3.71
2022-11-20T09:54:28.835Z,3.71
2022-11-20T09:57:00.532Z,3.73
2022-11-20T09:59:51.393Z,3.74
2022-11-20T10:02:29.031Z,3.76
2022-11-20T10:05:14.489Z,3.75
2022-11-20T10:08:05.866Z,3.68
2022-11-20T10:10:57.356Z,3.76
2022-11-20T10:13:23.789Z,3.80
2022-11-20T10:16:10.612Z,3.76
2022-11-20T10:18:54.270Z,3.85
2022-11-20T10:21:26.655Z,3.96
2022-11-20T10:24:08.541Z,4.03
2022-11-20T10:26:54.636Z,4.11
2022-11-20T10:29:36.144Z,3.97
2022-11-20T10:32:21.417Z,4.06
2022-11-20T10:35:14.499Z,4.19
2022-11-20T10:37:45.797Z,4.18
2022-11-20T10:40:49.395Z,4.15
2022-11-20T10:43:33.222Z,4.02
2022-11-20T10:46:04.954Z,4.04
2022-11-20T10:48:32.865Z,4.02
2022-11-20T10:51:11.986Z,4.13
2022-11-20T10:53:44.705Z,4.13
2022-11-20T10:56:48.305Z,4.09
2022-11-20T10:59:44.131Z,4.09
2022-11-20T11:02:22.409Z,4.16
2022-11-20T11:04:51.960Z,4.25
2022-11-20T11:07:39.598Z,4.11
2022-11-20T11:10:43.668Z,4.11
2022-11-20T11:13:21.407Z,3.89
2022-11-20T11:15:47.904Z,3.89
2022-11-20T11:18:27.690Z,3.88
2022-11-20T11:20:56.283Z,3.88
2022-11-20T11:23:33.838Z,3.94
2022-11-20T11:26:02.185Z,4.00
2022-11-20T11:28:29.666Z,4.09
2022-11-20T11:30:56.889Z,4.16
2022-11-20T11:33:28.811Z,4.16
2022-11-20T11:36:17.877Z,4.25
2022-11-20T11:38:45.548Z,4.25
2022-11-20T11:41:24.189Z,4.31
2022-11-20T11:44:13.410Z,4.31
2022-11-20T11:46:44.954Z,4.33
2022-11-20T11:49:11.354Z,4.36
2022-11-20T11:52:25.943Z,4.39
2022-11-20T11:54:56.165Z,4.41
2022-11-20T11:57:37.918Z,4.36
2022-11-20T12:00:17.647Z,4.39
2022-11-20T12:02:47.351Z,4.44
2022-11-20T12:05:22.865Z,4.42
2022-11-20T12:07:58.522Z,4.37
2022-11-20T12:10:42.666Z,4.40
2022-11-20T12:13:31.050Z,4.41
2022-11-20T12:15:57.642Z,4.36
2022-11-20T12:18:24.325Z,4.36
2022-11-20T12:21:16.018Z,4.32
2022-11-20T12:23:42.452Z,4.37
2022-11-20T12:26:49.670Z,4.39
2022-11-20T12:29:22.482Z,4.40
2022-11-20T12:32:02.374Z,4.40
2022-11-20T12:34:51.953Z,4.41
2022-11-20T12:37:24.542Z,4.43
2022-11-20T12:39:54.348Z,4.42
2022-11-20T12:43:00.510Z,4.43
2022-11-20T12:45:41.302Z,4.43
2022-11-20T12:48:25.480Z,4.47
2022-11-20T12:51:17.026Z,4.50
2022-11-20T12:54:20.472Z,4.53
2022-11-20T12:57:16.951Z,4.51
2022-11-20T13:00:11.865Z,4.56
2022-11-20T13:03:08.941Z,4.53
2022-11-20T13:05:59.922Z,4.52
2022-11-20T13:08:33.349Z,4.52
2022-11-20T13:11:14.440Z,4.51
2022-11-20T13:13:48.235Z,4.50
2022-11-20T13:16:26.160Z,4.51
2022-11-20T13:18:52.890Z,4.47
2022-11-20T13:21:40.917Z,4.50
2022-11-20T13:24:25.009Z,4.55
2022-11-20T13:27:07.037Z,4.55
2022-11-20T13:29:35.477Z,4.54
2022-11-20T13:32:19.439Z,4.54
2022-11-20T13:34:58.220Z,4.51
2022-11-20T13:37:30.478Z,4.51
2022-11-20T13:40:13.138Z,4.47
2022-11-20T13:42:46.544Z,4.47
2022-11-20T13:45:41.588Z,4.46
2022-11-20T13:48:23.070Z,4.44
2022-11-20T13:51:08.006Z,4.45
2022-11-20T13:54:13.419Z,4.47
2022-11-20T13:56:45.973Z,4.48
2022-11-20T13:59:27.712Z,4.49
2022-11-20T14:01:54.959Z,4.52
2022-11-20T14:04:30.094Z,4.50
2022-11-20T14:06:57.829Z,4.52
2022-11-20T14:09:33.371Z,4.56
2022-11-20T14:12:00.505Z,4.59
2022-11-20T14:14:29.360Z,4.60
2022-11-20T14:17:28.557Z,4.60
2022-11-20T14:19:59.119Z,4.59
2022-11-20T14:22:27.108Z,4.60
2022-11-20T14:25:16.568Z,4.60
2022-11-20T14:27:48.837Z,4.63
2022-11-20T14:30:21.982Z,4.63
2022-11-20T14:32:49.661Z,4.65
2022-11-20T14:35:27.601Z,4.65
2022-11-20T14:37:54.937Z,4.64
2022-11-20T14:40:38.445Z,4.63
2022-11-20T14:43:24.893Z,4.60
2022-11-20T14:46:00.766Z,4.59
2022-11-20T14:48:36.247Z,4.60
2022-11-20T14:51:03.269Z,4.59
2022-11-20T14:53:29.748Z,4.55
2022-11-20T14:56:01.484Z,4.54
2022-11-20T14:58:32.477Z,4.54
2022-11-20T15:01:05.093Z,4.53
2022-11-20T15:03:40.235Z,4.56
2022-11-20T15:06:08.941Z,4.55
2022-11-20T15:08:35.949Z,4.57
2022-11-20T15:11:03.094Z,4.57
2022-11-20T15:13:35.491Z,4.57
2022-11-20T15:16:02.975Z,4.64
2022-11-20T15:18:38.520Z,4.62
2022-11-20T15:21:11.813Z,4.58
2022-11-20T15:23:38.609Z,4.55
2022-11-20T15:26:06.764Z,4.55
2022-11-20T15:28:45.056Z,4.51
2022-11-20T15:31:17.636Z,4.50
2022-11-20T15:33:44.371Z,4.49
2022-11-20T15:36:11.187Z,4.52
2022-11-20T15:38:38.072Z,4.52
2022-11-20T15:41:05.243Z,4.53
2022-11-20T15:43:31.718Z,4.55
2022-11-20T15:46:03.450Z,4.54
2022-11-20T15:48:46.195Z,4.55
2022-11-20T15:51:36.062Z,4.57
2022-11-20T15:54:11.285Z,4.57
2022-11-20T15:56:38.444Z,4.59
2022-11-20T15:59:04.944Z,4.60
2022-11-20T16:01:31.783Z,4.61
2022-11-20T16:03:58.334Z,4.60
2022-11-20T16:06:24.770Z,4.61
2022-11-20T16:08:51.234Z,4.62
2022-11-20T16:11:19.122Z,4.61
2022-11-20T16:14:04.745Z,4.63
2022-11-20T16:16:35.112Z,4.62
2022-11-20T16:19:01.588Z,4.65
2022-11-20T16:21:32.513Z,4.66
2022-11-20T16:24:01.554Z,4.68
2022-11-20T16:26:28.836Z,4.67
2022-11-20T16:28:55.940Z,4.67
2022-11-20T16:31:23.278Z,4.69
2022-11-20T16:33:51.880Z,4.68
2022-11-20T16:36:19.653Z,4.68
2022-11-20T16:38:46.218Z,4.67
2022-11-20T16:41:15.766Z,4.68
2022-11-20T16:44:02.346Z,4.70
2022-11-20T16:46:32.688Z,4.67
2022-11-20T16:49:01.292Z,4.67
2022-11-20T16:51:29.656Z,4.65
2022-11-20T16:53:56.785Z,4.64
2022-11-20T16:56:25.846Z,4.63
2022-11-20T16:58:54.865Z,4.63
2022-11-20T17:01:23.050Z,4.65
2022-11-20T17:04:04.185Z,4.70
2022-11-20T17:06:44.287Z,4.69
2022-11-20T17:09:11.285Z,4.67
2022-11-20T17:11:37.921Z,4.66
2022-11-20T17:14:09.492Z,4.69
2022-11-20T17:16:36.971Z,4.72
2022-11-20T17:19:05.684Z,4.76
2022-11-20T17:21:33.554Z,4.76
2022-11-20T17:24:02.336Z,4.77
2022-11-20T17:26:29.434Z,4.76
2022-11-20T17:29:01.766Z,4.76
2022-11-20T17:31:30.088Z,4.80
2022-11-20T17:33:56.704Z,4.81
2022-11-20T17:36:23.287Z,4.83
2022-11-20T17:38:49.985Z,4.85
2022-11-20T17:41:18.824Z,4.83
2022-11-20T17:43:46.481Z,4.84
2022-11-20T17:46:18.081Z,4.85
2022-11-20T17:48:45.591Z,4.84
2022-11-20T17:51:14.709Z,4.85
2022-11-20T17:53:43.201Z,4.86
2022-11-20T17:56:29.082Z,4.86
2022-11-20T17:58:55.972Z,4.86
2022-11-20T18:01:22.828Z,4.89
2022-11-20T18:03:49.969Z,4.92
2022-11-20T18:06:22.503Z,4.94
2022-11-20T18:08:50.290Z,4.95
2022-11-20T18:11:25.696Z,4.96
2022-11-20T18:14:13.784Z,4.97
2022-11-20T18:16:43.406Z,5.04
2022-11-20T18:19:11.964Z,5.03
2022-11-20T18:21:38.701Z,5.02
2022-11-20T18:24:08.622Z,5.01
2022-11-20T18:26:39.954Z,5.06
2022-11-20T18:29:10.017Z,5.05
2022-11-20T18:31:36.518Z,5.06
2022-11-20T18:34:03.260Z,5.07
2022-11-20T18:36:31.140Z,5.08
2022-11-20T18:39:00.017Z,5.09
2022-11-20T18:41:47.021Z,5.11
2022-11-20T18:44:36.982Z,5.13
2022-11-20T18:47:08.361Z,5.20
2022-11-20T18:49:40.444Z,5.19
2022-11-20T18:52:06.951Z,5.19
2022-11-20T18:54:36.292Z,5.22
2022-11-20T18:57:03.372Z,5.21
2022-11-20T18:59:30.156Z,5.25
2022-11-20T19:01:56.932Z,5.32
2022-11-20T19:04:23.735Z,5.36
2022-11-20T19:06:50.578Z,5.38
2022-11-20T19:09:17.377Z,5.36
2022-11-20T19:11:43.990Z,5.39
2022-11-20T19:14:10.753Z,5.39
2022-11-20T19:16:37.464Z,5.43
2022-11-20T19:19:05.542Z,5.44
2022-11-20T19:21:32.483Z,5.46
2022-11-20T19:24:01.241Z,5.51
2022-11-20T19:26:28.208Z,5.52
2022-11-20T19:28:55.181Z,5.59
2022-11-20T19:31:25.081Z,5.66
2022-11-20T19:33:57.099Z,5.72
2022-11-20T19:36:38.078Z,5.78
2022-11-20T19:39:09.238Z,5.86
2022-11-20T19:41:37.866Z,5.90
2022-11-20T19:44:06.888Z,5.97
2022-11-20T19:46:35.826Z,6.00
2022-11-20T19:49:03.557Z,6.07
2022-11-20T19:51:33.924Z,6.10
2022-11-20T19:54:01.950Z,6.19
2022-11-20T19:56:29.730Z,6.19
2022-11-20T19:58:57.621Z,6.24
2022-11-20T20:01:29.449Z,6.26
2022-11-20T20:03:57.662Z,6.36
2022-11-20T20:06:28.132Z,6.36
2022-11-20T20:09:00.336Z,6.37
2022-11-20T20:11:28.868Z,6.37
2022-11-20T20:13:56.434Z,6.36
2022-11-20T20:16:25.342Z,6.37
2022-11-20T20:19:01.309Z,6.45
2022-11-20T20:21:28.231Z,6.43
2022-11-20T20:23:55.562Z,6.45
2022-11-20T20:26:26.982Z,6.43
2022-11-20T20:28:53.941Z,6.39
2022-11-20T20:31:23.437Z,6.38
2022-11-20T20:33:49.976Z,6.39
2022-11-20T20:36:18.837Z,6.37
2022-11-20T20:38:46.511Z,6.35
2022-11-20T20:41:13.919Z,6.30
2022-11-20T20:43:59.664Z,6.31
2022-11-20T20:46:26.237Z,6.30
2022-11-20T20:48:54.824Z,6.27
2022-11-20T20:51:22.882Z,6.21
2022-11-20T20:53:50.020Z,6.17
2022-11-20T20:56:17.430Z,6.18
2022-11-20T20:58:44.084Z,6.19
2022-11-20T21:01:13.677Z,6.20
2022-11-20T21:03:40.362Z,6.13
2022-11-20T21:06:09.946Z,6.13
2022-11-20T21:08:40.161Z,6.08
2022-11-20T21:11:10.195Z,6.03
2022-11-20T21:13:38.122Z,6.00
2022-11-20T21:16:05.362Z,5.95
2022-11-20T21:18:33.274Z,5.93
2022-11-20T21:21:18.587Z,5.91
2022-11-20T21:23:48.345Z,5.88
2022-11-20T21:26:16.085Z,5.82
2022-11-20T21:28:43.391Z,5.79
2022-11-20T21:31:15.633Z,5.75
2022-11-20T21:33:46.433Z,5.74
2022-11-20T21:36:15.439Z,5.66
2022-11-20T21:38:42.208Z,5.63
2022-11-20T21:41:10.743Z,5.62
2022-11-20T21:43:37.625Z,5.55
2022-11-20T21:46:09.424Z,5.50
2022-11-20T21:48:37.845Z,5.44
2022-11-20T21:51:06.913Z,5.36
2022-11-20T21:53:34.500Z,5.33
2022-11-20T21:56:01.962Z,5.27
2022-11-20T21:58:28.571Z,5.24
2022-11-20T22:00:55.151Z,5.24
2022-11-20T22:03:22.188Z,5.21
2022-11-20T22:05:58.860Z,5.21
2022-11-20T22:08:26.450Z,5.19
2022-11-20T22:11:04.251Z,5.18
2022-11-20T22:13:49.926Z,5.16
2022-11-20T22:16:16.490Z,5.10
2022-11-20T22:18:48.518Z,5.08
2022-11-20T22:21:16.804Z,5.05
2022-11-20T22:23:43.668Z,4.98
2022-11-20T22:26:16.332Z,4.98
2022-11-20T22:28:43.277Z,4.98
2022-11-20T22:31:11.413Z,4.96
2022-11-20T22:33:39.070Z,5.04
2022-11-20T22:36:07.825Z,5.01
2022-11-20T22:38:39.132Z,5.02
2022-11-20T22:41:08.498Z,4.94
2022-11-20T22:43:35.215Z,4.88
2022-11-20T22:46:07.561Z,4.85
2022-11-20T22:48:35.236Z,4.87
2022-11-20T22:51:09.148Z,4.84
2022-11-20T22:53:36.103Z,4.84
2022-11-20T22:56:03.861Z,4.79
2022-11-20T22:58:31.009Z,4.81
2022-11-20T23:01:11.048Z,4.81
2022-11-20T23:03:38.868Z,4.87
2022-11-20T23:06:07.206Z,4.79
2022-11-20T23:08:33.772Z,4.74
2022-11-20T23:11:06.414Z,4.75
2022-11-20T23:13:33.638Z,4.69
2022-11-20T23:16:03.009Z,4.67
2022-11-20T23:18:29.910Z,4.65
2022-11-20T23:20:57.076Z,4.64
2022-11-20T23:23:23.597Z,4.51
2022-11-20T23:25:50.693Z,4.52
2022-11-20T23:28:17.153Z,4.52
2022-11-20T23:30:47.471Z,4.49
2022-11-20T23:33:13.936Z,4.46
2022-11-20T23:35:40.415Z,4.45
2022-11-20T23:38:06.891Z,4.45
2022-11-20T23:40:38.753Z,4.46
2022-11-20T23:43:16.837Z,4.39
2022-11-20T23:45:48.449Z,4.28
2022-11-20T23:48:15.735Z,4.29
2022-11-20T23:50:43.889Z,4.30
2022-11-20T23:53:11.432Z,4.28
2022-11-20T23:55:38.012Z,4.33
2022-11-20T23:58:05.026Z,4.27
